Time;durP1;ratioP1;P1;durP2;ratioP2;P2;SDS_P1;SDS_P2;PMS_P1;PMS_P2;Temp;Humidity;BMP_temperature;BMP_pressure;BME280_temperature;BME280_humidity;BME280_pressure;Samples;Min_cycle;Max_cycle;Signal;HPM_P1;HPM_P2
2022/12/25 00:01:22;;;;;;;0.60;0.60;;;6.60;99.90;;;;;;4944517;28;20857;-80
2022/12/25 00:03:48;;;;;;;0.60;0.60;;;6.50;99.90;;;;;;4925169;28;20549;-80
2022/12/25 00:06:14;;;;;;;0.60;0.60;;;6.60;99.90;;;;;;4944512;28;20045;-80
2022/12/25 00:08:40;;;;;;;0.60;0.60;;;6.60;99.90;;;;;;4954284;28;20056;-80
2022/12/25 00:11:09;;;;;;;0.60;0.60;;;6.60;99.90;;;;;;4965738;28;20517;-80
2022/12/25 00:13:36;;;;;;;0.60;0.60;;;6.70;99.90;;;;;;4968784;28;20045;-80
2022/12/25 00:16:11;;;;;;;0.60;0.60;;;6.70;99.90;;;;;;4945181;28;20483;-80
2022/12/25 00:18:37;;;;;;;0.60;0.60;;;6.80;99.90;;;;;;4952278;28;21124;-80
2022/12/25 00:21:05;;;;;;;0.60;0.60;;;6.80;99.90;;;;;;4940874;28;20049;-81
2022/12/25 00:23:32;;;;;;;0.60;0.60;;;6.70;99.90;;;;;;4951661;28;20436;-80
2022/12/25 00:25:59;;;;;;;0.60;0.60;;;6.70;99.90;;;;;;4965213;28;20490;-80
2022/12/25 00:28:25;;;;;;;0.60;0.60;;;6.70;99.90;;;;;;4948318;28;20073;-80
2022/12/25 00:30:51;;;;;;;0.60;0.60;;;6.80;99.90;;;;;;4946433;28;20663;-80
2022/12/25 00:33:18;;;;;;;0.60;0.60;;;6.70;99.90;;;;;;4945848;28;20076;-80
2022/12/25 00:35:55;;;;;;;0.60;0.60;;;6.60;99.90;;;;;;4940823;28;20053;-80
2022/12/25 00:38:21;;;;;;;0.60;0.60;;;6.70;99.90;;;;;;4957243;28;20072;-80
2022/12/25 00:40:46;;;;;;;0.60;0.60;;;6.70;99.90;;;;;;4947902;28;20049;-80
2022/12/25 00:43:12;;;;;;;0.60;0.60;;;6.60;99.90;;;;;;4946328;28;20073;-81
2022/12/25 00:45:38;;;;;;;0.60;0.60;;;6.60;99.90;;;;;;4947385;28;20048;-79
2022/12/25 00:48:04;;;;;;;0.60;0.60;;;6.60;99.90;;;;;;4938917;28;20048;-80
2022/12/25 00:50:30;;;;;;;0.60;0.60;;;6.60;99.90;;;;;;4946105;28;20056;-79
2022/12/25 00:52:56;;;;;;;0.60;0.60;;;6.50;99.90;;;;;;4945112;28;20062;-80
2022/12/25 00:55:22;;;;;;;0.60;0.60;;;6.50;99.90;;;;;;4940955;28;20784;-79
2022/12/25 00:57:48;;;;;;;0.60;0.60;;;6.70;99.90;;;;;;4941470;28;20435;-80
2022/12/25 01:00:14;;;;;;;0.60;0.60;;;6.70;99.90;;;;;;4937624;28;20282;-79
2022/12/25 01:02:40;;;;;;;0.60;0.60;;;6.70;99.90;;;;;;4915876;28;20072;-80
2022/12/25 01:05:07;;;;;;;0.60;0.60;;;6.80;99.90;;;;;;4949934;28;20872;-79
2022/12/25 01:07:33;;;;;;;0.60;0.60;;;6.80;99.90;;;;;;4948382;28;20308;-80
2022/12/25 01:12:43;;;;;;;0.60;0.60;;;6.70;99.90;;;;;;4945391;28;20449;-79
2022/12/25 01:15:11;;;;;;;0.60;0.60;;;6.80;99.90;;;;;;4942141;28;20064;-79
2022/12/25 01:17:36;;;;;;;0.60;0.60;;;7.00;99.90;;;;;;4940035;28;20491;-80
2022/12/25 01:20:03;;;;;;;0.60;0.60;;;7.20;99.90;;;;;;4912360;28;20103;-79
2022/12/25 01:22:29;;;;;;;0.60;0.60;;;7.30;99.90;;;;;;4943980;28;20045;-80
2022/12/25 01:24:55;;;;;;;0.60;0.60;;;7.50;99.90;;;;;;4935553;28;20255;-79
2022/12/25 01:27:21;;;;;;;0.60;0.60;;;7.60;99.90;;;;;;4954332;28;20144;-80
2022/12/25 01:29:47;;;;;;;0.60;0.60;;;7.60;99.90;;;;;;4943769;28;20052;-79
2022/12/25 01:32:13;;;;;;;0.60;0.60;;;7.60;99.90;;;;;;4959238;28;20053;-80
2022/12/25 01:34:39;;;;;;;0.60;0.60;;;7.90;99.90;;;;;;4963754;28;20053;-79
2022/12/25 01:37:06;;;;;;;0.60;0.60;;;7.90;99.90;;;;;;4946160;28;20113;-80
2022/12/25 01:39:32;;;;;;;0.60;0.60;;;7.90;99.90;;;;;;4949002;28;20056;-80
2022/12/25 01:41:59;;;;;;;0.60;0.60;;;7.70;99.90;;;;;;4932046;28;20071;-80
2022/12/25 01:44:36;;;;;;;0.60;0.60;;;7.70;99.90;;;;;;4951432;28;20064;-80
2022/12/25 01:47:06;;;;;;;0.60;0.60;;;7.80;99.90;;;;;;4958754;28;20053;-80
2022/12/25 01:49:38;;;;;;;0.60;0.60;;;7.90;99.90;;;;;;4950496;28;20049;-80
2022/12/25 01:52:11;;;;;;;0.60;0.60;;;8.00;99.90;;;;;;4951833;28;20041;-80
2022/12/25 01:54:45;;;;;;;0.65;0.65;;;8.00;99.90;;;;;;4946764;28;20057;-80
2022/12/25 01:57:18;;;;;;;0.60;0.60;;;8.00;99.90;;;;;;4968988;28;20094;-80
2022/12/25 01:59:44;;;;;;;0.60;0.60;;;8.10;99.90;;;;;;4960283;28;20477;-80
2022/12/25 02:02:11;;;;;;;0.60;0.60;;;8.10;99.90;;;;;;4949350;28;20060;-80
2022/12/25 02:04:46;;;;;;;0.60;0.60;;;8.20;99.90;;;;;;4954941;28;20911;-80
2022/12/25 02:07:14;;;;;;;0.60;0.60;;;8.30;99.90;;;;;;4947029;28;20843;-80
2022/12/25 02:09:41;;;;;;;0.57;0.57;;;8.40;99.90;;;;;;4953169;28;20401;-80
2022/12/25 02:12:10;;;;;;;0.60;0.60;;;8.30;99.90;;;;;;4939011;28;20049;-80
2022/12/25 02:14:37;;;;;;;0.60;0.60;;;8.40;99.90;;;;;;4949121;28;20240;-80
2022/12/25 02:17:22;;;;;;;0.60;0.60;;;8.50;99.90;;;;;;4942578;28;20052;-80
2022/12/25 02:20:33;;;;;;;0.60;0.60;;;8.50;99.90;;;;;;4942034;28;20043;-81
2022/12/25 02:23:27;;;;;;;0.60;0.60;;;8.70;99.90;;;;;;4920166;28;20893;-81
2022/12/25 02:26:12;;;;;;;0.68;0.68;;;8.70;99.90;;;;;;4947490;28;20110;-80
2022/12/25 02:29:01;;;;;;;0.60;0.60;;;8.80;99.90;;;;;;4931157;28;20056;-80
2022/12/25 02:31:31;;;;;;;0.60;0.60;;;8.70;99.90;;;;;;4943165;28;20154;-80
2022/12/25 02:34:30;;;;;;;0.60;0.60;;;8.70;99.90;;;;;;4945925;28;20053;-80
2022/12/25 02:37:14;;;;;;;0.60;0.60;;;8.70;99.90;;;;;;4943750;28;20125;-80
2022/12/25 02:39:57;;;;;;;0.57;0.57;;;8.80;99.90;;;;;;4940679;28;20056;-80
2022/12/25 03:08:21;;;;;;;0.60;0.60;;;9.10;99.90;;;;;;4950564;28;20061;-80
2022/12/25 03:13:50;;;;;;;0.60;0.60;;;9.00;99.90;;;;;;4951789;28;20209;-80
2022/12/25 03:26:53;;;;;;;0.60;0.60;;;9.10;99.90;;;;;;4948434;28;20055;-80
2022/12/25 03:27:25;;;;;;;0.60;0.60;;;9.10;99.90;;;;;;4950500;28;20057;-80
2022/12/25 03:32:53;;;;;;;0.60;0.60;;;9.10;99.90;;;;;;4950741;28;20064;-80
2022/12/25 03:35:42;;;;;;;0.60;0.60;;;9.10;99.90;;;;;;4955915;28;21070;-81
2022/12/25 03:45:04;;;;;;;0.60;0.60;;;9.30;99.90;;;;;;4948887;28;20296;-80
2022/12/25 04:37:24;;;;;;;0.50;0.50;;;9.60;99.90;;;;;;4950044;28;20688;-80
2022/12/25 04:39:50;;;;;;;0.60;0.60;;;9.70;99.90;;;;;;4935003;28;20063;-81
2022/12/25 04:42:16;;;;;;;0.60;0.60;;;9.60;99.90;;;;;;4948034;28;23046;-81
2022/12/25 04:44:42;;;;;;;0.60;0.60;;;9.70;99.90;;;;;;4941254;28;20041;-80
2022/12/25 04:47:08;;;;;;;0.60;0.60;;;9.80;99.90;;;;;;4950579;28;20151;-80
2022/12/25 04:49:34;;;;;;;0.60;0.60;;;9.80;99.90;;;;;;4942981;28;20347;-81
2022/12/25 04:52:00;;;;;;;0.60;0.60;;;9.80;99.90;;;;;;4940634;28;21182;-81
2022/12/25 04:54:26;;;;;;;0.50;0.50;;;9.90;99.90;;;;;;4946325;28;20150;-80
2022/12/25 04:56:52;;;;;;;0.60;0.60;;;9.80;99.90;;;;;;4943080;28;20049;-80
2022/12/25 04:59:18;;;;;;;0.50;0.50;;;9.90;99.90;;;;;;4939820;28;20080;-81
2022/12/25 05:01:43;;;;;;;0.60;0.60;;;10.00;99.90;;;;;;4961833;28;20993;-81
2022/12/25 05:04:09;;;;;;;0.60;0.60;;;9.90;99.90;;;;;;4949379;28;20053;-81
2022/12/25 05:06:35;;;;;;;0.55;0.55;;;9.90;99.90;;;;;;4941151;28;20046;-80
2022/12/25 05:09:01;;;;;;;0.50;0.50;;;9.90;99.90;;;;;;4949250;28;20136;-81
2022/12/25 05:11:27;;;;;;;0.50;0.50;;;10.00;99.90;;;;;;4944508;28;20046;-81
2022/12/25 05:13:53;;;;;;;0.50;0.50;;;9.90;99.90;;;;;;4948452;28;20607;-80
2022/12/25 05:16:19;;;;;;;0.60;0.60;;;10.00;99.90;;;;;;4941796;28;20053;-81
2022/12/25 05:18:49;;;;;;;0.57;0.57;;;9.90;99.90;;;;;;4947743;28;20787;-81
2022/12/25 05:21:15;;;;;;;0.60;0.60;;;10.00;99.90;;;;;;4943856;28;20504;-80
2022/12/25 05:23:47;;;;;;;0.60;0.60;;;9.90;99.90;;;;;;4948560;28;20781;-80
2022/12/25 05:26:20;;;;;;;0.60;0.60;;;10.00;99.90;;;;;;4938527;28;20115;-81
2022/12/25 05:28:46;;;;;;;0.60;0.60;;;10.00;99.90;;;;;;4938320;28;20625;-81
2022/12/25 05:31:12;;;;;;;0.60;0.60;;;10.00;99.90;;;;;;4949240;28;20312;-81
2022/12/25 05:33:38;;;;;;;0.50;0.50;;;10.10;99.90;;;;;;4948530;28;20084;-81
2022/12/25 05:36:06;;;;;;;0.50;0.50;;;10.10;99.90;;;;;;4939981;28;20108;-81
2022/12/25 05:38:32;;;;;;;0.50;0.50;;;10.00;99.90;;;;;;4950234;28;20108;-81
2022/12/25 05:40:58;;;;;;;0.60;0.60;;;10.10;99.90;;;;;;4941499;28;20049;-80
2022/12/25 05:43:25;;;;;;;0.60;0.60;;;10.00;99.90;;;;;;4949657;28;20083;-80
2022/12/25 05:45:51;;;;;;;0.60;0.60;;;10.00;99.90;;;;;;4941987;28;20549;-80
2022/12/25 05:48:17;;;;;;;0.60;0.60;;;10.10;99.90;;;;;;4944844;28;20599;-80
2022/12/25 05:50:43;;;;;;;0.60;0.60;;;10.10;99.90;;;;;;4947386;28;20044;-80
2022/12/25 05:53:12;;;;;;;0.50;0.50;;;10.10;99.90;;;;;;4956707;28;20709;-81
2022/12/25 05:55:40;;;;;;;0.60;0.60;;;10.10;99.90;;;;;;4951300;28;20053;-80
2022/12/25 05:58:08;;;;;;;0.60;0.60;;;10.10;99.90;;;;;;4956665;28;20045;-80
2022/12/25 06:00:34;;;;;;;0.52;0.52;;;10.10;99.90;;;;;;4924730;28;20061;-80
2022/12/25 06:03:00;;;;;;;0.60;0.60;;;10.10;99.90;;;;;;4928860;28;20584;-80
2022/12/25 06:05:26;;;;;;;0.50;0.50;;;10.20;99.90;;;;;;4944490;28;20053;-81
2022/12/25 06:07:52;;;;;;;0.60;0.60;;;10.10;99.90;;;;;;4933857;28;20041;-81
2022/12/25 06:10:19;;;;;;;0.50;0.50;;;10.10;99.90;;;;;;4942042;28;20049;-80
2022/12/25 06:12:45;;;;;;;0.60;0.60;;;10.10;99.90;;;;;;4957685;28;20053;-81
2022/12/25 06:15:11;;;;;;;0.50;0.50;;;10.10;99.90;;;;;;4944103;28;20194;-81
2022/12/25 06:17:37;;;;;;;0.60;0.60;;;10.00;99.90;;;;;;4948580;28;20160;-81
2022/12/25 06:20:04;;;;;;;0.50;0.50;;;10.10;99.90;;;;;;4947397;28;20060;-81
2022/12/25 06:22:31;;;;;;;0.60;0.60;;;10.00;99.90;;;;;;4926308;28;20053;-80
2022/12/25 06:24:58;;;;;;;0.60;0.60;;;10.00;99.90;;;;;;4950417;28;20816;-80
2022/12/25 06:27:24;;;;;;;0.60;0.60;;;10.10;99.90;;;;;;4951313;28;20440;-81
2022/12/25 06:29:50;;;;;;;0.60;0.60;;;10.10;99.90;;;;;;4948396;28;20854;-82
2022/12/25 06:32:16;;;;;;;0.60;0.60;;;10.00;99.90;;;;;;4943088;28;20238;-81
2022/12/25 06:34:42;;;;;;;0.50;0.50;;;10.10;99.90;;;;;;4928640;28;20865;-80
2022/12/25 06:37:08;;;;;;;0.60;0.60;;;10.10;99.90;;;;;;4945395;28;20084;-81
2022/12/25 06:39:34;;;;;;;0.60;0.60;;;10.10;99.90;;;;;;4951050;28;20470;-81
2022/12/25 06:42:00;;;;;;;0.50;0.50;;;10.10;99.90;;;;;;4941615;28;20165;-80
2022/12/25 06:44:26;;;;;;;0.60;0.60;;;10.10;99.90;;;;;;4955599;28;20483;-80
2022/12/25 06:46:53;;;;;;;0.60;0.60;;;10.00;99.90;;;;;;4952045;28;20083;-81
2022/12/25 06:49:20;;;;;;;0.60;0.60;;;10.00;99.90;;;;;;4949976;28;20521;-80
2022/12/25 06:51:46;;;;;;;0.60;0.60;;;10.00;99.90;;;;;;4941164;28;20772;-81
2022/12/25 06:54:12;;;;;;;0.60;0.60;;;10.00;99.90;;;;;;4943809;28;20620;-81
2022/12/25 06:56:38;;;;;;;0.50;0.50;;;10.10;99.90;;;;;;4950802;28;20053;-81
2022/12/25 06:59:08;;;;;;;0.60;0.60;;;10.00;99.90;;;;;;4943193;28;20457;-81
2022/12/25 07:01:55;;;;;;;0.60;0.60;;;10.10;99.90;;;;;;4947979;28;20041;-80
2022/12/25 07:04:36;;;;;;;0.60;0.60;;;10.00;99.90;;;;;;4945188;28;20844;-80
2022/12/25 07:07:03;;;;;;;0.50;0.50;;;9.90;99.90;;;;;;4959351;28;20132;-81
2022/12/25 07:09:30;;;;;;;0.60;0.60;;;9.90;99.90;;;;;;4947166;28;20049;-80
2022/12/25 07:12:06;;;;;;;0.60;0.60;;;9.90;99.90;;;;;;4948284;28;20057;-80
2022/12/25 07:14:32;;;;;;;0.60;0.60;;;10.00;99.90;;;;;;4947040;28;20045;-80
2022/12/25 07:16:58;;;;;;;0.60;0.60;;;9.90;99.90;;;;;;4942929;28;20090;-80
2022/12/25 07:19:24;;;;;;;0.60;0.60;;;9.90;99.90;;;;;;4952303;28;20441;-80
2022/12/25 07:21:50;;;;;;;0.60;0.60;;;9.90;99.90;;;;;;4950125;28;20059;-81
2022/12/25 07:24:20;;;;;;;0.60;0.60;;;9.80;99.90;;;;;;4943101;28;20487;-80
2022/12/25 07:26:46;;;;;;;0.60;0.60;;;9.80;99.90;;;;;;4944918;28;20567;-80
2022/12/25 07:29:12;;;;;;;0.60;0.60;;;9.70;99.90;;;;;;4944774;28;20414;-79
2022/12/25 07:31:39;;;;;;;0.60;0.60;;;9.70;99.90;;;;;;4946152;28;20561;-80
2022/12/25 07:34:05;;;;;;;0.50;0.50;;;9.80;99.90;;;;;;4944304;28;20103;-80
2022/12/25 07:36:31;;;;;;;0.60;0.60;;;9.80;99.90;;;;;;4951814;28;20457;-79
2022/12/25 07:38:57;;;;;;;0.60;0.60;;;9.90;99.90;;;;;;4944869;28;20053;-80
2022/12/25 07:41:23;;;;;;;0.60;0.60;;;9.70;99.90;;;;;;4946806;28;20565;-79
2022/12/25 07:43:53;;;;;;;0.60;0.60;;;9.80;99.90;;;;;;4936302;28;20049;-82
2022/12/25 07:46:20;;;;;;;0.60;0.60;;;9.70;99.90;;;;;;4929651;28;20261;-80
2022/12/25 07:48:46;;;;;;;0.50;0.50;;;9.70;99.90;;;;;;4946011;28;20534;-81
2022/12/25 07:51:14;;;;;;;0.55;0.55;;;9.60;99.90;;;;;;4928483;28;20541;-81
2022/12/25 07:53:41;;;;;;;0.50;0.50;;;9.60;99.90;;;;;;4935901;28;20887;-81
2022/12/25 07:56:13;;;;;;;0.60;0.60;;;9.70;99.90;;;;;;4946751;28;20071;-80
2022/12/25 07:58:39;;;;;;;0.60;0.60;;;9.70;99.90;;;;;;4951152;28;20045;-81
2022/12/25 08:01:09;;;;;;;0.60;0.60;;;9.70;99.90;;;;;;4945263;28;20055;-79
2022/12/25 08:03:35;;;;;;;0.60;0.60;;;9.70;99.90;;;;;;4943960;28;20052;-81
2022/12/25 08:06:03;;;;;;;0.50;0.50;;;9.80;99.90;;;;;;4942530;28;20045;-81
2022/12/25 08:08:30;;;;;;;0.60;0.60;;;9.90;99.90;;;;;;4928930;28;20080;-80
2022/12/25 08:10:56;;;;;;;0.60;0.60;;;10.00;99.90;;;;;;4945894;28;20658;-79
2022/12/25 08:13:22;;;;;;;0.60;0.60;;;10.00;99.90;;;;;;4947146;28;20418;-81
2022/12/25 08:15:49;;;;;;;0.60;0.60;;;10.00;99.90;;;;;;4944303;28;20054;-81
2022/12/25 08:18:15;;;;;;;0.60;0.60;;;10.10;99.90;;;;;;4949829;28;20049;-81
2022/12/25 08:20:41;;;;;;;0.60;0.60;;;10.10;99.90;;;;;;4950397;28;20053;-81
2022/12/25 08:23:08;;;;;;;0.60;0.60;;;10.20;99.90;;;;;;4942675;28;21270;-79
2022/12/25 08:25:34;;;;;;;0.50;0.50;;;10.20;99.90;;;;;;4937140;28;20992;-82
2022/12/25 08:28:00;;;;;;;0.60;0.60;;;10.20;99.90;;;;;;4943162;28;20085;-81
2022/12/25 08:30:27;;;;;;;0.60;0.60;;;10.30;99.90;;;;;;4940131;28;20041;-81
2022/12/25 08:32:52;;;;;;;0.50;0.50;;;10.30;99.90;;;;;;4944915;28;20250;-80
2022/12/25 08:35:18;;;;;;;0.60;0.60;;;10.30;99.90;;;;;;4941698;28;20861;-81
2022/12/25 08:37:44;;;;;;;0.60;0.60;;;10.40;99.90;;;;;;4944578;28;20649;-81
2022/12/25 08:40:11;;;;;;;0.60;0.60;;;10.40;99.90;;;;;;4921905;28;20043;-80
2022/12/25 08:42:37;;;;;;;0.60;0.60;;;10.30;99.90;;;;;;4936609;28;20052;-80
2022/12/25 08:45:03;;;;;;;0.60;0.60;;;10.40;99.90;;;;;;4934884;28;20045;-81
2022/12/25 08:47:29;;;;;;;0.60;0.60;;;10.40;99.90;;;;;;4945923;28;20057;-81
2022/12/25 08:49:55;;;;;;;0.60;0.60;;;10.40;99.90;;;;;;4942645;28;20068;-80
2022/12/25 08:52:21;;;;;;;0.60;0.60;;;10.40;99.90;;;;;;4937296;28;20088;-81
2022/12/25 08:54:47;;;;;;;0.60;0.60;;;10.50;99.90;;;;;;4941190;28;20049;-80
2022/12/25 08:57:13;;;;;;;0.60;0.60;;;10.50;99.90;;;;;;4952208;28;20549;-81
2022/12/25 08:59:38;;;;;;;0.60;0.60;;;10.50;99.90;;;;;;4945241;28;20037;-81
2022/12/25 09:02:05;;;;;;;0.60;0.60;;;10.50;99.90;;;;;;4945768;28;20903;-81
2022/12/25 09:04:30;;;;;;;0.60;0.60;;;10.50;99.90;;;;;;4941716;28;20590;-81
2022/12/25 09:06:57;;;;;;;0.60;0.60;;;10.50;99.90;;;;;;4945440;28;20038;-81
2022/12/25 09:09:27;;;;;;;0.60;0.60;;;10.50;99.90;;;;;;4938579;28;20564;-81
2022/12/25 09:11:53;;;;;;;0.60;0.60;;;10.60;99.90;;;;;;4941252;28;20617;-81
2022/12/25 09:14:19;;;;;;;0.60;0.60;;;10.50;99.90;;;;;;4944127;28;20423;-80
2022/12/25 09:16:45;;;;;;;0.60;0.60;;;10.50;99.90;;;;;;4944268;28;20041;-80
2022/12/25 09:19:11;;;;;;;0.60;0.60;;;10.50;99.90;;;;;;4947066;28;20577;-81
2022/12/25 09:21:37;;;;;;;0.60;0.60;;;10.60;99.90;;;;;;4943249;28;20666;-81
2022/12/25 09:24:04;;;;;;;0.60;0.60;;;10.60;99.90;;;;;;4940227;28;20053;-80
2022/12/25 09:26:29;;;;;;;0.60;0.60;;;10.60;99.90;;;;;;4942515;28;20045;-81
2022/12/25 09:28:55;;;;;;;0.60;0.60;;;10.60;99.90;;;;;;4943221;28;21017;-81
2022/12/25 09:31:22;;;;;;;0.60;0.60;;;10.60;99.90;;;;;;4943579;28;20049;-81
2022/12/25 09:33:49;;;;;;;0.60;0.60;;;10.60;99.90;;;;;;4946167;28;20497;-80
2022/12/25 09:36:16;;;;;;;0.60;0.60;;;10.70;99.90;;;;;;4945181;28;20049;-80
2022/12/25 09:38:42;;;;;;;0.60;0.60;;;10.60;99.90;;;;;;4941264;28;20179;-81
2022/12/25 09:41:32;;;;;;;0.60;0.60;;;10.60;99.90;;;;;;4941014;28;20411;-81
2022/12/25 09:44:23;;;;;;;0.60;0.60;;;10.70;99.90;;;;;;4954542;28;20054;-80
2022/12/25 09:46:54;;;;;;;0.60;0.60;;;10.60;99.90;;;;;;4948226;28;20535;-81
2022/12/25 09:49:29;;;;;;;0.60;0.60;;;10.60;99.90;;;;;;4940609;28;20928;-80
2022/12/25 09:52:04;;;;;;;0.60;0.60;;;10.60;99.90;;;;;;4945264;28;20341;-80
2022/12/25 09:54:47;;;;;;;0.50;0.50;;;10.70;99.90;;;;;;4940223;28;20052;-81
2022/12/25 09:57:14;;;;;;;0.60;0.60;;;10.60;99.90;;;;;;4943070;28;21170;-81
2022/12/25 09:59:43;;;;;;;0.60;0.60;;;10.60;99.90;;;;;;4949374;28;20521;-81
2022/12/25 10:02:34;;;;;;;0.50;0.50;;;10.60;99.90;;;;;;4945747;28;20582;-81
2022/12/25 10:05:16;;;;;;;0.60;0.60;;;10.60;99.90;;;;;;4942550;28;20216;-80
2022/12/25 10:08:17;;;;;;;0.60;0.60;;;10.60;99.90;;;;;;4942450;28;20041;-81
2022/12/25 10:10:56;;;;;;;0.60;0.60;;;10.70;99.90;;;;;;4946052;28;21248;-79
2022/12/25 10:13:48;;;;;;;0.60;0.60;;;10.60;99.90;;;;;;4920779;28;20136;-79
2022/12/25 10:16:43;;;;;;;0.60;0.60;;;10.60;99.90;;;;;;4951506;28;20052;-80
2022/12/25 10:19:13;;;;;;;0.60;0.60;;;10.70;99.90;;;;;;4934742;28;20723;-80
2022/12/25 10:21:41;;;;;;;0.50;0.50;;;10.60;99.90;;;;;;4934251;28;20045;-80
2022/12/25 10:24:31;;;;;;;0.60;0.60;;;10.70;99.90;;;;;;4935941;28;20058;-81
2022/12/25 10:26:57;;;;;;;0.60;0.60;;;10.70;99.90;;;;;;4937547;28;20607;-80
2022/12/25 10:29:22;;;;;;;0.60;0.60;;;10.70;99.90;;;;;;4947474;28;20057;-80
2022/12/25 10:31:52;;;;;;;0.50;0.50;;;10.80;99.90;;;;;;4928333;28;20475;-80
2022/12/25 10:34:18;;;;;;;0.60;0.60;;;10.80;99.90;;;;;;4949014;28;20476;-80
2022/12/25 10:36:45;;;;;;;0.50;0.50;;;10.70;99.90;;;;;;4946071;28;20050;-80
2022/12/25 10:39:23;;;;;;;0.50;0.50;;;10.80;99.90;;;;;;4948547;28;20045;-80
2022/12/25 10:42:18;;;;;;;0.50;0.50;;;10.70;99.90;;;;;;4944274;28;20049;-80
2022/12/25 10:44:54;;;;;;;0.50;0.50;;;10.80;99.90;;;;;;4960210;28;20079;-80
2022/12/25 10:47:32;;;;;;;0.60;0.60;;;10.80;99.90;;;;;;4944508;28;20038;-81
2022/12/25 10:50:00;;;;;;;0.60;0.60;;;10.90;99.90;;;;;;4940359;28;20776;-80
2022/12/25 10:52:28;;;;;;;0.52;0.52;;;10.90;99.90;;;;;;4943207;28;20052;-81
2022/12/25 10:54:54;;;;;;;0.60;0.60;;;10.90;99.90;;;;;;4945568;28;20045;-80
2022/12/25 10:57:24;;;;;;;0.50;0.50;;;10.90;99.90;;;;;;4949940;28;20391;-81
2022/12/25 10:59:55;;;;;;;0.50;0.50;;;10.90;99.90;;;;;;4944158;28;20053;-80
2022/12/25 11:02:27;;;;;;;0.50;0.50;;;10.90;99.90;;;;;;4942232;28;20436;-80
2022/12/25 11:05:03;;;;;;;0.50;0.50;;;10.80;99.90;;;;;;4941210;28;20372;-80
2022/12/25 11:07:31;;;;;;;0.50;0.50;;;10.80;99.90;;;;;;4938719;28;20053;-80
2022/12/25 11:10:03;;;;;;;0.50;0.50;;;10.80;99.90;;;;;;4944972;28;20378;-80
2022/12/25 11:12:37;;;;;;;0.50;0.50;;;10.80;99.90;;;;;;4942522;28;20352;-79
2022/12/25 11:15:42;;;;;;;0.60;0.60;;;10.80;99.90;;;;;;4946908;28;20059;-80
2022/12/25 11:18:25;;;;;;;0.50;0.50;;;10.80;99.90;;;;;;4936007;28;20371;-81
2022/12/25 11:20:52;;;;;;;0.50;0.50;;;10.80;99.90;;;;;;4944620;28;22008;-80
2022/12/25 11:23:19;;;;;;;0.60;0.60;;;10.80;99.90;;;;;;4945239;28;20455;-81
2022/12/25 11:26:03;;;;;;;0.50;0.50;;;10.80;99.90;;;;;;4940367;28;20238;-81
2022/12/25 11:28:31;;;;;;;0.52;0.52;;;10.80;99.90;;;;;;4947007;28;20212;-82
2022/12/25 11:31:06;;;;;;;0.60;0.60;;;10.80;99.90;;;;;;4941461;28;20056;-81
2022/12/25 11:33:38;;;;;;;0.50;0.50;;;10.80;99.90;;;;;;4947453;28;20057;-82
2022/12/25 11:36:21;;;;;;;0.50;0.50;;;10.80;99.90;;;;;;4940162;28;20048;-82
2022/12/25 11:38:47;;;;;;;0.50;0.50;;;10.80;99.90;;;;;;4927293;28;20053;-81
2022/12/25 11:41:19;;;;;;;0.55;0.55;;;10.70;99.90;;;;;;4939932;28;20068;-81
2022/12/25 11:44:00;;;;;;;0.50;0.50;;;10.70;99.90;;;;;;4948513;28;20287;-80
2022/12/25 11:46:42;;;;;;;0.50;0.50;;;10.80;99.90;;;;;;4946407;28;20065;-81
2022/12/25 11:49:14;;;;;;;0.55;0.55;;;10.70;99.90;;;;;;4944017;28;20772;-80
2022/12/25 11:51:43;;;;;;;0.50;0.50;;;10.60;99.90;;;;;;4939023;28;20527;-80
2022/12/25 11:54:42;;;;;;;0.60;0.60;;;10.60;99.90;;;;;;4928403;28;20405;-81
2022/12/25 11:57:11;;;;;;;0.50;0.50;;;10.60;99.90;;;;;;4954181;28;20105;-80
2022/12/25 11:59:54;;;;;;;0.50;0.50;;;10.60;99.90;;;;;;4935081;28;20076;-81
2022/12/25 12:02:31;;;;;;;0.60;0.60;;;10.60;99.90;;;;;;4947213;28;21014;-81
2022/12/25 12:05:15;;;;;;;0.50;0.50;;;10.60;99.90;;;;;;4936660;28;20295;-81
2022/12/25 12:07:53;;;;;;;0.50;0.50;;;10.60;99.90;;;;;;4940176;28;20053;-80
2022/12/25 12:10:42;;;;;;;0.50;0.50;;;10.60;99.90;;;;;;4941021;28;20160;-80
2022/12/25 12:13:23;;;;;;;0.50;0.50;;;10.60;99.90;;;;;;4947302;28;20132;-79
2022/12/25 12:15:50;;;;;;;0.50;0.50;;;10.60;99.90;;;;;;4939811;28;20139;-80
2022/12/25 12:18:28;;;;;;;0.60;0.60;;;10.60;99.90;;;;;;4947707;28;20052;-80
2022/12/25 12:21:22;;;;;;;0.57;0.57;;;10.70;99.90;;;;;;4959751;28;20056;-79
2022/12/25 12:24:10;;;;;;;0.50;0.50;;;10.60;99.90;;;;;;4939441;28;20056;-79
2022/12/25 12:26:39;;;;;;;0.60;0.60;;;10.60;99.90;;;;;;4945937;28;20572;-80
2022/12/25 12:29:20;;;;;;;0.60;0.60;;;10.50;99.90;;;;;;4942625;28;20251;-80
2022/12/25 12:31:48;;;;;;;0.60;0.60;;;10.50;99.90;;;;;;4961019;28;20049;-80
2022/12/25 12:34:29;;;;;;;0.50;0.50;;;10.50;99.90;;;;;;4941790;28;20902;-80
2022/12/25 12:37:03;;;;;;;0.50;0.50;;;10.50;99.90;;;;;;4943614;28;20071;-79
2022/12/25 12:39:39;;;;;;;0.60;0.60;;;10.60;99.90;;;;;;4939070;28;20053;-80
2022/12/25 12:42:24;;;;;;;0.60;0.60;;;10.50;99.90;;;;;;4924222;28;20816;-80
2022/12/25 12:44:54;;;;;;;0.50;0.50;;;10.60;99.90;;;;;;4947847;28;20944;-80
2022/12/25 12:47:32;;;;;;;0.50;0.50;;;10.50;99.90;;;;;;4947045;28;20114;-80
2022/12/25 12:49:59;;;;;;;0.50;0.50;;;10.50;99.90;;;;;;4936520;28;20056;-80
2022/12/25 12:52:33;;;;;;;0.50;0.50;;;10.50;99.90;;;;;;4943938;28;20132;-80
2022/12/25 12:55:03;;;;;;;0.60;0.60;;;10.50;99.90;;;;;;4938858;28;20958;-80
2022/12/25 12:57:38;;;;;;;0.50;0.50;;;10.40;99.90;;;;;;4931036;28;20453;-80
2022/12/25 13:00:14;;;;;;;0.60;0.60;;;10.50;99.90;;;;;;4939590;28;20053;-80
2022/12/25 13:03:08;;;;;;;0.60;0.60;;;10.40;99.90;;;;;;4943130;28;20049;-80
2022/12/25 13:05:44;;;;;;;0.60;0.60;;;10.40;99.90;;;;;;4949997;28;20057;-80
2022/12/25 13:08:18;;;;;;;0.60;0.60;;;10.50;99.90;;;;;;4940935;28;20057;-80
2022/12/25 13:10:49;;;;;;;0.60;0.60;;;10.50;99.90;;;;;;4939203;28;20635;-80
2022/12/25 13:13:23;;;;;;;0.50;0.50;;;10.40;99.90;;;;;;4937726;28;20049;-80
2022/12/25 13:15:50;;;;;;;0.50;0.50;;;10.40;99.90;;;;;;4942380;28;20056;-81
2022/12/25 13:18:17;;;;;;;0.57;0.57;;;10.40;99.90;;;;;;4940024;28;20088;-81
2022/12/25 13:20:54;;;;;;;0.50;0.50;;;10.50;99.90;;;;;;4942094;28;20538;-81
2022/12/25 13:23:35;;;;;;;0.50;0.50;;;10.50;99.90;;;;;;4942004;28;20961;-81
2022/12/25 13:26:13;;;;;;;0.50;0.50;;;10.40;99.90;;;;;;4937272;28;20172;-81
2022/12/25 13:28:40;;;;;;;0.60;0.60;;;10.40;99.90;;;;;;4939488;28;20504;-81
2022/12/25 13:31:12;;;;;;;0.60;0.60;;;10.40;99.90;;;;;;4942938;28;20045;-81
2022/12/25 13:33:40;;;;;;;0.60;0.60;;;10.40;99.90;;;;;;4940337;28;20150;-81
2022/12/25 13:36:12;;;;;;;0.60;0.60;;;10.50;99.90;;;;;;4944472;28;20110;-81
2022/12/25 13:38:46;;;;;;;0.50;0.50;;;10.40;99.90;;;;;;4941173;28;20609;-81
2022/12/25 13:44:27;;;;;;;0.60;0.60;;;10.30;99.90;;;;;;4940828;28;20790;-81
2022/12/25 13:46:53;;;;;;;0.50;0.50;;;10.40;99.90;;;;;;4949737;28;20049;-82
2022/12/25 13:49:22;;;;;;;0.60;0.60;;;10.40;99.90;;;;;;4950795;28;20845;-82
2022/12/25 13:51:49;;;;;;;0.52;0.52;;;10.30;99.90;;;;;;4948766;28;20797;-81
2022/12/25 13:54:17;;;;;;;0.60;0.60;;;10.30;99.90;;;;;;4967701;28;20045;-82
2022/12/25 13:56:54;;;;;;;0.60;0.60;;;10.40;99.90;;;;;;4945315;28;20048;-82
2022/12/25 13:59:23;;;;;;;0.55;0.55;;;10.40;99.90;;;;;;4949431;28;20061;-82
2022/12/25 14:01:52;;;;;;;0.60;0.60;;;10.30;99.90;;;;;;4948837;28;20045;-82
2022/12/25 14:04:21;;;;;;;0.60;0.60;;;10.30;99.90;;;;;;4939576;28;21149;-83
2022/12/25 14:06:48;;;;;;;0.60;0.60;;;10.40;99.90;;;;;;4943414;28;20324;-82
2022/12/25 14:09:14;;;;;;;0.60;0.60;;;10.40;99.90;;;;;;4942678;28;20045;-82
2022/12/25 14:11:46;;;;;;;0.50;0.50;;;10.40;99.90;;;;;;4952161;28;20172;-82
2022/12/25 14:14:21;;;;;;;0.50;0.50;;;10.40;99.90;;;;;;4949760;28;20045;-82
2022/12/25 14:16:49;;;;;;;0.50;0.50;;;10.40;99.90;;;;;;4951592;28;20080;-83
2022/12/25 14:19:28;;;;;;;0.50;0.50;;;10.30;99.90;;;;;;4967431;28;20045;-83
2022/12/25 14:22:18;;;;;;;0.50;0.50;;;10.40;99.90;;;;;;4953945;28;20899;-82
2022/12/25 14:24:44;;;;;;;0.50;0.50;;;10.30;99.90;;;;;;4952026;28;20041;-83
2022/12/25 14:27:31;;;;;;;0.50;0.50;;;10.30;99.90;;;;;;4933254;28;20508;-83
2022/12/25 14:29:59;;;;;;;0.52;0.52;;;10.20;99.90;;;;;;4952318;28;20931;-82
2022/12/25 14:32:30;;;;;;;0.60;0.60;;;10.20;99.90;;;;;;4941877;28;20179;-82
2022/12/25 14:35:04;;;;;;;0.50;0.50;;;10.30;99.90;;;;;;4969609;28;20050;-82
2022/12/25 14:37:33;;;;;;;0.50;0.50;;;10.10;99.90;;;;;;4955135;28;20527;-83
2022/12/25 14:40:02;;;;;;;0.50;0.50;;;10.20;99.90;;;;;;4929389;28;20049;-82
2022/12/25 14:42:31;;;;;;;0.50;0.50;;;10.20;99.90;;;;;;4948614;28;20059;-82
2022/12/25 14:45:05;;;;;;;0.50;0.50;;;10.20;99.90;;;;;;4969340;28;20586;-82
2022/12/25 14:47:38;;;;;;;0.50;0.50;;;10.20;99.90;;;;;;4943927;28;20057;-82
2022/12/25 14:50:26;;;;;;;0.60;0.60;;;10.20;99.90;;;;;;4966473;28;20041;-82
2022/12/25 14:52:52;;;;;;;0.50;0.50;;;10.10;99.90;;;;;;4947384;28;21871;-82